sensor_id;sensor_type;location;lat;lon;timestamp;P1;durP1;ratioP1;P2;durP2;ratioP2
18274;SDS011;19470;49.322;7.218;2022-09-01T00:00:02;7.30;;;6.45;;
18274;SDS011;19470;49.322;7.218;2022-09-01T00:02:35;7.57;;;5.97;;
18274;SDS011;19470;49.322;7.218;2022-09-01T00:05:02;8.48;;;6.22;;
18274;SDS011;19470;49.322;7.218;2022-09-01T00:07:32;7.68;;;6.00;;
18274;SDS011;19470;49.322;7.218;2022-09-01T00:09:59;8.02;;;6.22;;
18274;SDS011;19470;49.322;7.218;2022-09-01T00:12:28;8.93;;;6.38;;
18274;SDS011;19470;49.322;7.218;2022-09-01T00:14:55;7.82;;;5.90;;
18274;SDS011;19470;49.322;7.218;2022-09-01T00:17:22;10.55;;;6.22;;
18274;SDS011;19470;49.322;7.218;2022-09-01T00:19:50;8.57;;;6.32;;
18274;SDS011;19470;49.322;7.218;2022-09-01T00:22:16;10.60;;;6.32;;
18274;SDS011;19470;49.322;7.218;2022-09-01T00:24:44;8.20;;;6.22;;
18274;SDS011;19470;49.322;7.218;2022-09-01T00:27:11;7.35;;;5.90;;
18274;SDS011;19470;49.322;7.218;2022-09-01T00:29:37;6.68;;;5.97;;
18274;SDS011;19470;49.322;7.218;2022-09-01T00:32:04;8.40;;;6.25;;
18274;SDS011;19470;49.322;7.218;2022-09-01T00:34:30;7.45;;;6.35;;
18274;SDS011;19470;49.322;7.218;2022-09-01T00:36:57;7.55;;;5.85;;
18274;SDS011;19470;49.322;7.218;2022-09-01T00:39:23;8.50;;;6.65;;
18274;SDS011;19470;49.322;7.218;2022-09-01T00:41:51;8.18;;;6.70;;
18274;SDS011;19470;49.322;7.218;2022-09-01T00:44:19;10.57;;;7.20;;
18274;SDS011;19470;49.322;7.218;2022-09-01T00:46:51;7.75;;;6.95;;
18274;SDS011;19470;49.322;7.218;2022-09-01T00:49:20;9.38;;;6.75;;
18274;SDS011;19470;49.322;7.218;2022-09-01T00:51:52;7.20;;;6.35;;
18274;SDS011;19470;49.322;7.218;2022-09-01T00:54:22;9.40;;;7.38;;
18274;SDS011;19470;49.322;7.218;2022-09-01T00:56:56;8.48;;;6.80;;
18274;SDS011;19470;49.322;7.218;2022-09-01T00:59:24;11.40;;;6.85;;
18274;SDS011;19470;49.322;7.218;2022-09-01T01:01:51;8.02;;;6.63;;
18274;SDS011;19470;49.322;7.218;2022-09-01T01:04:18;7.63;;;6.50;;
18274;SDS011;19470;49.322;7.218;2022-09-01T01:06:47;7.40;;;6.55;;
18274;SDS011;19470;49.322;7.218;2022-09-01T01:09:23;8.00;;;6.18;;
18274;SDS011;19470;49.322;7.218;2022-09-01T01:11:51;9.73;;;7.18;;
18274;SDS011;19470;49.322;7.218;2022-09-01T01:14:19;8.15;;;6.45;;
18274;SDS011;19470;49.322;7.218;2022-09-01T01:16:47;11.27;;;6.78;;
18274;SDS011;19470;49.322;7.218;2022-09-01T01:19:19;9.80;;;7.30;;
18274;SDS011;19470;49.322;7.218;2022-09-01T01:22:09;8.15;;;6.20;;
18274;SDS011;19470;49.322;7.218;2022-09-01T01:25:03;9.45;;;6.85;;
18274;SDS011;19470;49.322;7.218;2022-09-01T01:27:30;9.73;;;6.60;;
18274;SDS011;19470;49.322;7.218;2022-09-01T01:29:59;8.25;;;6.97;;
18274;SDS011;19470;49.322;7.218;2022-09-01T01:32:25;7.57;;;6.80;;
18274;SDS011;19470;49.322;7.218;2022-09-01T01:34:53;10.57;;;7.20;;
18274;SDS011;19470;49.322;7.218;2022-09-01T01:37:20;7.82;;;6.45;;
18274;SDS011;19470;49.322;7.218;2022-09-01T01:39:48;8.77;;;7.43;;
18274;SDS011;19470;49.322;7.218;2022-09-01T01:42:16;10.50;;;7.50;;
18274;SDS011;19470;49.322;7.218;2022-09-01T01:44:43;12.15;;;7.80;;
18274;SDS011;19470;49.322;7.218;2022-09-01T01:47:11;8.25;;;7.43;;
18274;SDS011;19470;49.322;7.218;2022-09-01T01:49:38;9.98;;;7.85;;
18274;SDS011;19470;49.322;7.218;2022-09-01T01:52:08;8.85;;;7.13;;
18274;SDS011;19470;49.322;7.218;2022-09-01T01:54:39;11.07;;;6.90;;
18274;SDS011;19470;49.322;7.218;2022-09-01T01:57:05;8.80;;;7.47;;
18274;SDS011;19470;49.322;7.218;2022-09-01T01:59:33;9.15;;;6.80;;
18274;SDS011;19470;49.322;7.218;2022-09-01T02:02:02;9.43;;;7.30;;
18274;SDS011;19470;49.322;7.218;2022-09-01T02:04:32;9.23;;;7.00;;
18274;SDS011;19470;49.322;7.218;2022-09-01T02:06:59;9.25;;;7.32;;
18274;SDS011;19470;49.322;7.218;2022-09-01T02:09:25;8.95;;;6.40;;
18274;SDS011;19470;49.322;7.218;2022-09-01T02:11:52;8.23;;;7.40;;
18274;SDS011;19470;49.322;7.218;2022-09-01T02:14:21;10.65;;;7.03;;
18274;SDS011;19470;49.322;7.218;2022-09-01T02:16:49;10.65;;;6.97;;
18274;SDS011;19470;49.322;7.218;2022-09-01T02:19:19;7.32;;;6.57;;
18274;SDS011;19470;49.322;7.218;2022-09-01T02:21:46;8.65;;;6.68;;
18274;SDS011;19470;49.322;7.218;2022-09-01T02:24:18;8.60;;;6.50;;
18274;SDS011;19470;49.322;7.218;2022-09-01T02:26:45;14.02;;;6.90;;
18274;SDS011;19470;49.322;7.218;2022-09-01T02:29:13;10.80;;;6.82;;
18274;SDS011;19470;49.322;7.218;2022-09-01T02:31:45;7.88;;;7.07;;
18274;SDS011;19470;49.322;7.218;2022-09-01T02:34:14;8.23;;;7.07;;
18274;SDS011;19470;49.322;7.218;2022-09-01T02:36:42;9.70;;;7.13;;
18274;SDS011;19470;49.322;7.218;2022-09-01T02:39:12;11.23;;;7.80;;
18274;SDS011;19470;49.322;7.218;2022-09-01T02:41:39;8.93;;;7.32;;
18274;SDS011;19470;49.322;7.218;2022-09-01T02:44:06;10.63;;;7.30;;
18274;SDS011;19470;49.322;7.218;2022-09-01T02:46:36;9.13;;;7.15;;
18274;SDS011;19470;49.322;7.218;2022-09-01T02:49:06;8.68;;;6.60;;
18274;SDS011;19470;49.322;7.218;2022-09-01T02:51:40;8.75;;;6.75;;
18274;SDS011;19470;49.322;7.218;2022-09-01T02:54:08;7.88;;;6.90;;
18274;SDS011;19470;49.322;7.218;2022-09-01T02:56:35;8.02;;;7.22;;
18274;SDS011;19470;49.322;7.218;2022-09-01T02:59:02;9.13;;;6.75;;
18274;SDS011;19470;49.322;7.218;2022-09-01T03:01:29;7.45;;;6.65;;
18274;SDS011;19470;49.322;7.218;2022-09-01T03:03:57;8.38;;;6.63;;
18274;SDS011;19470;49.322;7.218;2022-09-01T03:06:25;7.72;;;6.45;;
18274;SDS011;19470;49.322;7.218;2022-09-01T03:08:55;8.88;;;6.80;;
18274;SDS011;19470;49.322;7.218;2022-09-01T03:11:24;7.82;;;7.03;;
18274;SDS011;19470;49.322;7.218;2022-09-01T03:13:52;7.50;;;6.70;;
18274;SDS011;19470;49.322;7.218;2022-09-01T03:16:19;10.07;;;6.95;;
18274;SDS011;19470;49.322;7.218;2022-09-01T03:18:47;7.38;;;6.57;;
18274;SDS011;19470;49.322;7.218;2022-09-01T03:21:14;7.63;;;6.82;;
18274;SDS011;19470;49.322;7.218;2022-09-01T03:23:41;7.68;;;6.90;;
18274;SDS011;19470;49.322;7.218;2022-09-01T03:26:10;10.30;;;7.03;;
18274;SDS011;19470;49.322;7.218;2022-09-01T03:28:38;6.95;;;6.25;;
18274;SDS011;19470;49.322;7.218;2022-09-01T03:31:05;10.75;;;6.72;;
18274;SDS011;19470;49.322;7.218;2022-09-01T03:33:33;7.65;;;6.78;;
18274;SDS011;19470;49.322;7.218;2022-09-01T03:36:00;8.43;;;6.45;;
18274;SDS011;19470;49.322;7.218;2022-09-01T03:38:27;8.27;;;7.00;;
18274;SDS011;19470;49.322;7.218;2022-09-01T03:40:54;8.27;;;6.85;;
18274;SDS011;19470;49.322;7.218;2022-09-01T03:43:27;7.25;;;6.45;;
18274;SDS011;19470;49.322;7.218;2022-09-01T03:45:55;8.82;;;7.70;;
18274;SDS011;19470;49.322;7.218;2022-09-01T03:48:23;8.98;;;7.00;;
18274;SDS011;19470;49.322;7.218;2022-09-01T03:50:53;8.27;;;6.70;;
18274;SDS011;19470;49.322;7.218;2022-09-01T03:53:21;9.30;;;7.03;;
18274;SDS011;19470;49.322;7.218;2022-09-01T03:55:51;7.05;;;6.35;;
18274;SDS011;19470;49.322;7.218;2022-09-01T03:58:22;7.35;;;6.50;;
18274;SDS011;19470;49.322;7.218;2022-09-01T04:00:52;8.13;;;6.47;;
18274;SDS011;19470;49.322;7.218;2022-09-01T04:03:21;8.98;;;7.20;;
18274;SDS011;19470;49.322;7.218;2022-09-01T04:05:48;12.90;;;6.78;;
18274;SDS011;19470;49.322;7.218;2022-09-01T04:08:16;9.07;;;6.90;;
18274;SDS011;19470;49.322;7.218;2022-09-01T04:10:44;7.80;;;7.03;;
18274;SDS011;19470;49.322;7.218;2022-09-01T04:13:14;7.85;;;6.70;;
18274;SDS011;19470;49.322;7.218;2022-09-01T04:15:41;7.97;;;6.63;;
18274;SDS011;19470;49.322;7.218;2022-09-01T04:18:09;7.47;;;6.55;;
18274;SDS011;19470;49.322;7.218;2022-09-01T04:20:36;7.90;;;6.78;;
18274;SDS011;19470;49.322;7.218;2022-09-01T04:23:14;8.40;;;6.93;;
18274;SDS011;19470;49.322;7.218;2022-09-01T04:25:45;7.57;;;6.72;;
18274;SDS011;19470;49.322;7.218;2022-09-01T04:28:14;7.97;;;6.53;;
18274;SDS011;19470;49.322;7.218;2022-09-01T04:30:47;7.00;;;5.95;;
18274;SDS011;19470;49.322;7.218;2022-09-01T04:33:16;8.60;;;6.43;;
18274;SDS011;19470;49.322;7.218;2022-09-01T04:35:43;7.18;;;6.47;;
18274;SDS011;19470;49.322;7.218;2022-09-01T04:38:09;8.23;;;6.18;;
18274;SDS011;19470;49.322;7.218;2022-09-01T04:40:39;11.43;;;6.47;;
18274;SDS011;19470;49.322;7.218;2022-09-01T04:43:06;7.22;;;6.38;;
18274;SDS011;19470;49.322;7.218;2022-09-01T04:45:33;9.77;;;6.70;;
18274;SDS011;19470;49.322;7.218;2022-09-01T04:48:00;8.70;;;6.75;;
18274;SDS011;19470;49.322;7.218;2022-09-01T04:50:28;8.50;;;6.30;;
18274;SDS011;19470;49.322;7.218;2022-09-01T04:52:57;11.38;;;7.38;;
18274;SDS011;19470;49.322;7.218;2022-09-01T04:55:25;7.97;;;6.57;;
18274;SDS011;19470;49.322;7.218;2022-09-01T04:57:54;8.35;;;6.70;;
18274;SDS011;19470;49.322;7.218;2022-09-01T05:00:22;8.02;;;6.40;;
18274;SDS011;19470;49.322;7.218;2022-09-01T05:02:51;10.07;;;6.88;;
18274;SDS011;19470;49.322;7.218;2022-09-01T05:05:19;11.10;;;6.70;;
18274;SDS011;19470;49.322;7.218;2022-09-01T05:07:48;7.28;;;6.20;;
18274;SDS011;19470;49.322;7.218;2022-09-01T05:10:19;7.25;;;6.53;;
18274;SDS011;19470;49.322;7.218;2022-09-01T05:12:46;11.35;;;6.88;;
18274;SDS011;19470;49.322;7.218;2022-09-01T05:15:13;14.02;;;6.75;;
18274;SDS011;19470;49.322;7.218;2022-09-01T05:17:41;8.70;;;6.80;;
18274;SDS011;19470;49.322;7.218;2022-09-01T05:20:09;8.02;;;6.63;;
18274;SDS011;19470;49.322;7.218;2022-09-01T05:22:36;10.98;;;6.15;;
18274;SDS011;19470;49.322;7.218;2022-09-01T05:25:06;10.00;;;6.68;;
18274;SDS011;19470;49.322;7.218;2022-09-01T05:27:38;7.35;;;6.47;;
18274;SDS011;19470;49.322;7.218;2022-09-01T05:30:06;8.48;;;6.43;;
18274;SDS011;19470;49.322;7.218;2022-09-01T05:32:33;8.43;;;6.60;;
18274;SDS011;19470;49.322;7.218;2022-09-01T05:35:01;8.25;;;7.32;;
18274;SDS011;19470;49.322;7.218;2022-09-01T05:37:30;7.88;;;6.47;;
18274;SDS011;19470;49.322;7.218;2022-09-01T05:39:57;6.97;;;6.10;;
18274;SDS011;19470;49.322;7.218;2022-09-01T05:42:25;8.50;;;6.80;;
18274;SDS011;19470;49.322;7.218;2022-09-01T05:44:52;7.63;;;6.85;;
18274;SDS011;19470;49.322;7.218;2022-09-01T05:47:19;11.05;;;6.70;;
18274;SDS011;19470;49.322;7.218;2022-09-01T05:49:45;9.48;;;6.82;;
18274;SDS011;19470;49.322;7.218;2022-09-01T05:52:13;16.98;;;6.88;;
18274;SDS011;19470;49.322;7.218;2022-09-01T05:54:40;8.02;;;6.53;;
18274;SDS011;19470;49.322;7.218;2022-09-01T05:57:06;12.30;;;6.60;;
18274;SDS011;19470;49.322;7.218;2022-09-01T05:59:34;10.20;;;5.75;;
18274;SDS011;19470;49.322;7.218;2022-09-01T06:02:05;11.70;;;6.22;;
18274;SDS011;19470;49.322;7.218;2022-09-01T06:04:33;8.10;;;5.82;;
18274;SDS011;19470;49.322;7.218;2022-09-01T06:07:02;12.82;;;5.43;;
18274;SDS011;19470;49.322;7.218;2022-09-01T06:09:35;6.38;;;5.38;;
18274;SDS011;19470;49.322;7.218;2022-09-01T06:12:03;6.35;;;4.88;;
18274;SDS011;19470;49.322;7.218;2022-09-01T06:14:30;6.38;;;5.30;;
18274;SDS011;19470;49.322;7.218;2022-09-01T06:16:58;6.90;;;5.05;;
18274;SDS011;19470;49.322;7.218;2022-09-01T06:19:24;8.27;;;4.80;;
18274;SDS011;19470;49.322;7.218;2022-09-01T06:21:51;9.90;;;4.57;;
18274;SDS011;19470;49.322;7.218;2022-09-01T06:24:17;7.40;;;4.75;;
18274;SDS011;19470;49.322;7.218;2022-09-01T06:26:44;8.07;;;4.20;;
18274;SDS011;19470;49.322;7.218;2022-09-01T06:29:11;4.55;;;3.83;;
18274;SDS011;19470;49.322;7.218;2022-09-01T06:31:39;12.25;;;3.78;;
18274;SDS011;19470;49.322;7.218;2022-09-01T06:34:17;3.85;;;3.53;;
18274;SDS011;19470;49.322;7.218;2022-09-01T06:36:44;4.07;;;3.38;;
18274;SDS011;19470;49.322;7.218;2022-09-01T06:39:12;4.55;;;3.13;;
18274;SDS011;19470;49.322;7.218;2022-09-01T06:41:43;5.13;;;3.10;;
18274;SDS011;19470;49.322;7.218;2022-09-01T06:44:11;6.80;;;4.28;;
18274;SDS011;19470;49.322;7.218;2022-09-01T06:46:39;8.38;;;3.03;;
18274;SDS011;19470;49.322;7.218;2022-09-01T06:49:05;4.10;;;2.80;;
18274;SDS011;19470;49.322;7.218;2022-09-01T06:51:37;6.00;;;2.60;;
18274;SDS011;19470;49.322;7.218;2022-09-01T06:54:03;4.22;;;3.28;;
18274;SDS011;19470;49.322;7.218;2022-09-01T06:56:30;3.63;;;3.10;;
18274;SDS011;19470;49.322;7.218;2022-09-01T06:58:58;4.47;;;2.53;;
18274;SDS011;19470;49.322;7.218;2022-09-01T07:01:28;4.30;;;2.67;;
18274;SDS011;19470;49.322;7.218;2022-09-01T07:03:55;3.55;;;2.72;;
18274;SDS011;19470;49.322;7.218;2022-09-01T07:06:22;5.57;;;2.70;;
18274;SDS011;19470;49.322;7.218;2022-09-01T07:08:52;3.50;;;2.78;;
18274;SDS011;19470;49.322;7.218;2022-09-01T07:11:20;5.13;;;2.88;;
18274;SDS011;19470;49.322;7.218;2022-09-01T07:13:49;6.38;;;2.95;;
18274;SDS011;19470;49.322;7.218;2022-09-01T07:16:18;4.68;;;2.40;;
18274;SDS011;19470;49.322;7.218;2022-09-01T07:18:47;7.57;;;3.05;;
18274;SDS011;19470;49.322;7.218;2022-09-01T07:21:13;4.28;;;2.72;;
18274;SDS011;19470;49.322;7.218;2022-09-01T07:23:40;3.05;;;2.70;;
18274;SDS011;19470;49.322;7.218;2022-09-01T07:26:09;5.55;;;2.65;;
18274;SDS011;19470;49.322;7.218;2022-09-01T07:28:42;5.07;;;2.72;;
18274;SDS011;19470;49.322;7.218;2022-09-01T07:31:15;4.43;;;2.70;;
18274;SDS011;19470;49.322;7.218;2022-09-01T07:33:44;3.47;;;2.60;;
18274;SDS011;19470;49.322;7.218;2022-09-01T07:36:13;6.00;;;3.03;;
18274;SDS011;19470;49.322;7.218;2022-09-01T07:38:40;4.65;;;3.20;;
18274;SDS011;19470;49.322;7.218;2022-09-01T07:41:09;4.18;;;3.00;;
18274;SDS011;19470;49.322;7.218;2022-09-01T07:43:37;4.20;;;2.88;;
18274;SDS011;19470;49.322;7.218;2022-09-01T07:46:09;5.20;;;2.85;;
18274;SDS011;19470;49.322;7.218;2022-09-01T07:48:36;4.32;;;3.30;;
18274;SDS011;19470;49.322;7.218;2022-09-01T07:51:04;4.55;;;3.30;;
18274;SDS011;19470;49.322;7.218;2022-09-01T07:53:32;4.35;;;3.00;;
18274;SDS011;19470;49.322;7.218;2022-09-01T07:56:03;3.97;;;3.08;;
18274;SDS011;19470;49.322;7.218;2022-09-01T07:58:35;5.95;;;3.10;;
18274;SDS011;19470;49.322;7.218;2022-09-01T08:01:05;5.20;;;3.47;;
18274;SDS011;19470;49.322;7.218;2022-09-01T08:03:33;5.22;;;3.65;;
18274;SDS011;19470;49.322;7.218;2022-09-01T08:06:01;6.65;;;3.58;;
18274;SDS011;19470;49.322;7.218;2022-09-01T08:08:30;6.47;;;3.70;;
18274;SDS011;19470;49.322;7.218;2022-09-01T08:10:57;8.38;;;4.95;;
18274;SDS011;19470;49.322;7.218;2022-09-01T08:13:24;7.57;;;4.43;;
18274;SDS011;19470;49.322;7.218;2022-09-01T08:15:52;5.28;;;4.38;;
18274;SDS011;19470;49.322;7.218;2022-09-01T08:18:18;5.88;;;4.65;;
18274;SDS011;19470;49.322;7.218;2022-09-01T08:20:45;4.80;;;3.97;;
18274;SDS011;19470;49.322;7.218;2022-09-01T08:23:12;5.70;;;3.78;;
18274;SDS011;19470;49.322;7.218;2022-09-01T08:25:42;4.03;;;3.45;;
18274;SDS011;19470;49.322;7.218;2022-09-01T08:28:10;4.47;;;3.55;;
18274;SDS011;19470;49.322;7.218;2022-09-01T08:30:38;4.88;;;3.72;;
18274;SDS011;19470;49.322;7.218;2022-09-01T08:33:08;3.90;;;3.25;;
18274;SDS011;19470;49.322;7.218;2022-09-01T08:35:36;8.00;;;3.60;;
18274;SDS011;19470;49.322;7.218;2022-09-01T08:38:03;8.63;;;3.38;;
18274;SDS011;19470;49.322;7.218;2022-09-01T08:40:29;6.82;;;3.60;;
18274;SDS011;19470;49.322;7.218;2022-09-01T08:42:58;4.50;;;3.40;;
18274;SDS011;19470;49.322;7.218;2022-09-01T08:45:32;5.18;;;3.15;;
18274;SDS011;19470;49.322;7.218;2022-09-01T08:48:06;5.63;;;3.35;;
18274;SDS011;19470;49.322;7.218;2022-09-01T08:50:41;7.18;;;3.17;;
18274;SDS011;19470;49.322;7.218;2022-09-01T08:53:15;4.18;;;3.58;;
18274;SDS011;19470;49.322;7.218;2022-09-01T08:55:49;6.45;;;3.55;;
18274;SDS011;19470;49.322;7.218;2022-09-01T08:58:19;4.03;;;3.00;;
18274;SDS011;19470;49.322;7.218;2022-09-01T09:00:48;4.38;;;3.40;;
18274;SDS011;19470;49.322;7.218;2022-09-01T09:03:24;6.10;;;3.38;;
18274;SDS011;19470;49.322;7.218;2022-09-01T09:06:01;3.85;;;3.28;;
18274;SDS011;19470;49.322;7.218;2022-09-01T09:11:39;4.20;;;3.47;;
18274;SDS011;19470;49.322;7.218;2022-09-01T09:14:16;3.42;;;3.03;;
18274;SDS011;19470;49.322;7.218;2022-09-01T09:16:53;4.50;;;3.67;;
18274;SDS011;19470;49.322;7.218;2022-09-01T09:19:22;4.68;;;3.25;;
18274;SDS011;19470;49.322;7.218;2022-09-01T09:21:52;7.80;;;3.83;;
18274;SDS011;19470;49.322;7.218;2022-09-01T09:24:22;4.50;;;3.90;;
18274;SDS011;19470;49.322;7.218;2022-09-01T09:26:53;5.13;;;3.80;;
18274;SDS011;19470;49.322;7.218;2022-09-01T09:29:24;4.63;;;3.90;;
18274;SDS011;19470;49.322;7.218;2022-09-01T09:32:00;5.13;;;3.88;;
18274;SDS011;19470;49.322;7.218;2022-09-01T09:34:31;6.28;;;3.72;;
18274;SDS011;19470;49.322;7.218;2022-09-01T09:37:14;9.52;;;3.88;;
18274;SDS011;19470;49.322;7.218;2022-09-01T09:40:00;5.03;;;3.70;;
18274;SDS011;19470;49.322;7.218;2022-09-01T09:42:30;4.60;;;3.67;;
18274;SDS011;19470;49.322;7.218;2022-09-01T09:44:57;6.22;;;3.83;;
18274;SDS011;19470;49.322;7.218;2022-09-01T09:47:32;4.75;;;3.75;;
18274;SDS011;19470;49.322;7.218;2022-09-01T09:50:11;5.45;;;3.90;;
18274;SDS011;19470;49.322;7.218;2022-09-01T09:52:42;4.00;;;3.60;;
18274;SDS011;19470;49.322;7.218;2022-09-01T09:55:17;5.05;;;3.42;;
18274;SDS011;19470;49.322;7.218;2022-09-01T09:57:47;4.53;;;3.80;;
18274;SDS011;19470;49.322;7.218;2022-09-01T10:00:17;5.20;;;3.58;;
18274;SDS011;19470;49.322;7.218;2022-09-01T10:02:50;5.25;;;3.63;;
18274;SDS011;19470;49.322;7.218;2022-09-01T10:05:38;4.13;;;3.42;;
18274;SDS011;19470;49.322;7.218;2022-09-01T10:08:07;3.95;;;3.15;;
18274;SDS011;19470;49.322;7.218;2022-09-01T10:10:39;5.18;;;3.33;;
18274;SDS011;19470;49.322;7.218;2022-09-01T10:13:08;3.40;;;3.10;;
18274;SDS011;19470;49.322;7.218;2022-09-01T10:15:37;4.03;;;3.63;;
18274;SDS011;19470;49.322;7.218;2022-09-01T10:18:06;4.10;;;3.70;;
18274;SDS011;19470;49.322;7.218;2022-09-01T10:20:40;6.25;;;3.55;;
18274;SDS011;19470;49.322;7.218;2022-09-01T10:23:12;3.63;;;2.80;;
18274;SDS011;19470;49.322;7.218;2022-09-01T10:25:39;4.88;;;3.40;;
18274;SDS011;19470;49.322;7.218;2022-09-01T10:28:08;4.13;;;3.20;;
18274;SDS011;19470;49.322;7.218;2022-09-01T10:30:38;5.35;;;3.72;;
18274;SDS011;19470;49.322;7.218;2022-09-01T10:33:07;4.22;;;3.70;;
18274;SDS011;19470;49.322;7.218;2022-09-01T10:35:35;4.05;;;3.45;;
18274;SDS011;19470;49.322;7.218;2022-09-01T10:38:07;3.35;;;3.05;;
18274;SDS011;19470;49.322;7.218;2022-09-01T10:40:40;3.50;;;3.03;;
18274;SDS011;19470;49.322;7.218;2022-09-01T10:43:32;4.75;;;3.42;;
18274;SDS011;19470;49.322;7.218;2022-09-01T10:46:06;4.78;;;3.05;;
18274;SDS011;19470;49.322;7.218;2022-09-01T10:48:34;4.03;;;2.88;;
18274;SDS011;19470;49.322;7.218;2022-09-01T10:54:08;4.78;;;3.30;;
18274;SDS011;19470;49.322;7.218;2022-09-01T10:56:55;3.72;;;3.13;;
18274;SDS011;19470;49.322;7.218;2022-09-01T10:59:25;4.32;;;3.15;;
18274;SDS011;19470;49.322;7.218;2022-09-01T11:02:04;3.25;;;2.60;;
18274;SDS011;19470;49.322;7.218;2022-09-01T11:07:44;5.00;;;2.70;;
18274;SDS011;19470;49.322;7.218;2022-09-01T11:10:24;3.35;;;2.80;;
18274;SDS011;19470;49.322;7.218;2022-09-01T11:13:03;3.38;;;2.38;;
18274;SDS011;19470;49.322;7.218;2022-09-01T11:15:42;4.28;;;3.00;;
18274;SDS011;19470;49.322;7.218;2022-09-01T11:18:11;2.97;;;2.67;;
18274;SDS011;19470;49.322;7.218;2022-09-01T11:20:41;3.60;;;2.80;;
18274;SDS011;19470;49.322;7.218;2022-09-01T11:23:10;4.35;;;2.70;;
18274;SDS011;19470;49.322;7.218;2022-09-01T11:25:40;3.40;;;3.08;;
18274;SDS011;19470;49.322;7.218;2022-09-01T11:34:14;3.45;;;2.60;;
18274;SDS011;19470;49.322;7.218;2022-09-01T11:36:50;2.72;;;2.53;;
18274;SDS011;19470;49.322;7.218;2022-09-01T11:39:30;5.93;;;2.50;;
18274;SDS011;19470;49.322;7.218;2022-09-01T11:42:02;3.80;;;2.38;;
18274;SDS011;19470;49.322;7.218;2022-09-01T11:44:34;2.95;;;2.50;;
18274;SDS011;19470;49.322;7.218;2022-09-01T11:47:06;2.88;;;2.22;;
18274;SDS011;19470;49.322;7.218;2022-09-01T11:49:38;3.05;;;2.50;;
18274;SDS011;19470;49.322;7.218;2022-09-01T11:52:13;3.25;;;2.50;;
18274;SDS011;19470;49.322;7.218;2022-09-01T11:54:41;3.80;;;2.78;;
18274;SDS011;19470;49.322;7.218;2022-09-01T11:57:28;2.80;;;2.30;;
18274;SDS011;19470;49.322;7.218;2022-09-01T11:59:57;3.47;;;2.60;;
18274;SDS011;19470;49.322;7.218;2022-09-01T12:02:26;3.88;;;2.47;;
18274;SDS011;19470;49.322;7.218;2022-09-01T12:04:56;4.47;;;2.78;;
18274;SDS011;19470;49.322;7.218;2022-09-01T12:07:24;4.70;;;2.60;;
18274;SDS011;19470;49.322;7.218;2022-09-01T12:09:53;3.72;;;2.53;;
18274;SDS011;19470;49.322;7.218;2022-09-01T12:12:32;3.70;;;2.55;;
18274;SDS011;19470;49.322;7.218;2022-09-01T12:15:00;4.00;;;3.15;;
18274;SDS011;19470;49.322;7.218;2022-09-01T12:17:28;4.18;;;2.83;;
18274;SDS011;19470;49.322;7.218;2022-09-01T12:19:55;3.10;;;2.80;;
18274;SDS011;19470;49.322;7.218;2022-09-01T12:22:22;5.43;;;3.08;;
18274;SDS011;19470;49.322;7.218;2022-09-01T12:24:49;5.35;;;2.80;;
18274;SDS011;19470;49.322;7.218;2022-09-01T12:27:18;3.17;;;2.80;;
18274;SDS011;19470;49.322;7.218;2022-09-01T12:29:46;4.70;;;2.22;;
18274;SDS011;19470;49.322;7.218;2022-09-01T12:32:13;3.63;;;2.60;;
18274;SDS011;19470;49.322;7.218;2022-09-01T12:34:41;3.85;;;2.38;;
18274;SDS011;19470;49.322;7.218;2022-09-01T12:37:11;2.58;;;2.35;;
18274;SDS011;19470;49.322;7.218;2022-09-01T12:39:46;4.15;;;2.60;;
18274;SDS011;19470;49.322;7.218;2022-09-01T12:42:21;2.55;;;2.35;;
18274;SDS011;19470;49.322;7.218;2022-09-01T12:44:53;3.63;;;2.83;;
18274;SDS011;19470;49.322;7.218;2022-09-01T12:50:34;5.88;;;2.38;;
18274;SDS011;19470;49.322;7.218;2022-09-01T12:53:12;2.60;;;2.40;;
18274;SDS011;19470;49.322;7.218;2022-09-01T12:55:51;6.55;;;2.58;;
18274;SDS011;19470;49.322;7.218;2022-09-01T12:58:20;2.75;;;2.28;;
18274;SDS011;19470;49.322;7.218;2022-09-01T13:00:55;3.00;;;2.22;;
18274;SDS011;19470;49.322;7.218;2022-09-01T13:03:23;4.70;;;2.38;;
18274;SDS011;19470;49.322;7.218;2022-09-01T13:05:51;4.10;;;2.60;;
18274;SDS011;19470;49.322;7.218;2022-09-01T13:08:20;5.47;;;2.60;;
18274;SDS011;19470;49.322;7.218;2022-09-01T13:10:50;4.45;;;2.75;;
18274;SDS011;19470;49.322;7.218;2022-09-01T13:13:19;3.67;;;2.67;;
18274;SDS011;19470;49.322;7.218;2022-09-01T13:15:48;4.32;;;3.13;;
18274;SDS011;19470;49.322;7.218;2022-09-01T13:18:18;3.47;;;2.70;;
18274;SDS011;19470;49.322;7.218;2022-09-01T13:20:46;3.40;;;2.70;;
18274;SDS011;19470;49.322;7.218;2022-09-01T13:23:14;3.90;;;3.05;;
18274;SDS011;19470;49.322;7.218;2022-09-01T13:25:41;3.00;;;2.30;;
18274;SDS011;19470;49.322;7.218;2022-09-01T13:28:10;3.65;;;2.60;;
18274;SDS011;19470;49.322;7.218;2022-09-01T13:30:37;3.42;;;2.75;;
18274;SDS011;19470;49.322;7.218;2022-09-01T13:33:05;3.15;;;2.40;;
18274;SDS011;19470;49.322;7.218;2022-09-01T13:35:33;3.22;;;2.53;;
18274;SDS011;19470;49.322;7.218;2022-09-01T13:37:59;2.97;;;2.25;;
18274;SDS011;19470;49.322;7.218;2022-09-01T13:40:26;4.88;;;2.70;;
18274;SDS011;19470;49.322;7.218;2022-09-01T13:42:53;4.65;;;2.42;;
18274;SDS011;19470;49.322;7.218;2022-09-01T13:45:20;3.35;;;2.40;;
18274;SDS011;19470;49.322;7.218;2022-09-01T13:47:50;3.20;;;2.50;;
18274;SDS011;19470;49.322;7.218;2022-09-01T13:50:18;3.90;;;2.80;;
18274;SDS011;19470;49.322;7.218;2022-09-01T13:52:50;9.00;;;3.17;;
18274;SDS011;19470;49.322;7.218;2022-09-01T13:55:19;3.20;;;2.60;;
18274;SDS011;19470;49.322;7.218;2022-09-01T13:57:47;2.72;;;2.50;;
18274;SDS011;19470;49.322;7.218;2022-09-01T14:00:15;6.35;;;2.72;;
18274;SDS011;19470;49.322;7.218;2022-09-01T14:02:47;10.60;;;2.83;;
18274;SDS011;19470;49.322;7.218;2022-09-01T14:05:17;2.80;;;2.53;;
18274;SDS011;19470;49.322;7.218;2022-09-01T14:07:46;3.75;;;2.45;;
18274;SDS011;19470;49.322;7.218;2022-09-01T14:10:15;3.35;;;2.55;;
18274;SDS011;19470;49.322;7.218;2022-09-01T14:12:42;4.15;;;2.50;;
18274;SDS011;19470;49.322;7.218;2022-09-01T14:15:11;3.88;;;3.33;;
18274;SDS011;19470;49.322;7.218;2022-09-01T14:17:38;3.55;;;2.75;;
18274;SDS011;19470;49.322;7.218;2022-09-01T14:20:06;2.65;;;2.40;;
18274;SDS011;19470;49.322;7.218;2022-09-01T14:22:35;2.80;;;2.50;;
18274;SDS011;19470;49.322;7.218;2022-09-01T14:25:02;2.70;;;2.50;;
18274;SDS011;19470;49.322;7.218;2022-09-01T14:27:30;2.90;;;2.58;;
18274;SDS011;19470;49.322;7.218;2022-09-01T14:29:57;3.85;;;3.05;;
18274;SDS011;19470;49.322;7.218;2022-09-01T14:32:24;3.03;;;2.50;;
18274;SDS011;19470;49.322;7.218;2022-09-01T14:34:51;3.08;;;2.50;;
18274;SDS011;19470;49.322;7.218;2022-09-01T14:37:18;3.13;;;2.53;;
18274;SDS011;19470;49.322;7.218;2022-09-01T14:39:47;3.63;;;2.17;;
18274;SDS011;19470;49.322;7.218;2022-09-01T14:42:15;2.95;;;2.65;;
18274;SDS011;19470;49.322;7.218;2022-09-01T14:44:44;5.00;;;2.53;;
18274;SDS011;19470;49.322;7.218;2022-09-01T14:47:11;3.65;;;2.40;;
18274;SDS011;19470;49.322;7.218;2022-09-01T14:49:37;2.67;;;2.30;;
18274;SDS011;19470;49.322;7.218;2022-09-01T14:52:04;2.60;;;2.40;;
18274;SDS011;19470;49.322;7.218;2022-09-01T14:54:32;6.30;;;2.75;;
18274;SDS011;19470;49.322;7.218;2022-09-01T14:56:59;3.53;;;2.67;;
18274;SDS011;19470;49.322;7.218;2022-09-01T14:59:26;4.80;;;2.67;;
18274;SDS011;19470;49.322;7.218;2022-09-01T15:01:54;4.25;;;2.30;;
18274;SDS011;19470;49.322;7.218;2022-09-01T15:04:20;2.90;;;2.25;;
18274;SDS011;19470;49.322;7.218;2022-09-01T15:06:47;4.40;;;2.75;;
18274;SDS011;19470;49.322;7.218;2022-09-01T15:09:14;2.90;;;2.58;;
18274;SDS011;19470;49.322;7.218;2022-09-01T15:11:40;3.80;;;2.65;;
18274;SDS011;19470;49.322;7.218;2022-09-01T15:14:09;2.70;;;2.50;;
18274;SDS011;19470;49.322;7.218;2022-09-01T15:16:36;3.40;;;2.30;;